createdAt,value
2023-01-19T00:04:44.401Z,99380.25
2023-01-19T00:09:47.599Z,99403.85
2023-01-19T00:14:50.431Z,99403.33
2023-01-19T00:19:53.234Z,99400.92
2023-01-19T00:24:56.703Z,99409.90
2023-01-19T00:29:59.547Z,99414.84
2023-01-19T00:35:02.391Z,99421.09
2023-01-19T00:40:07.188Z,99441.30
2023-01-19T00:45:18.671Z,99449.55
2023-01-19T00:50:21.543Z,99454.02
2023-01-19T00:55:24.411Z,99449.55
2023-01-19T01:00:27.785Z,99437.17
2023-01-19T01:05:30.688Z,99429.44
2023-01-19T01:10:33.675Z,99428.69
2023-01-19T01:15:36.558Z,99429.52
2023-01-19T01:20:39.453Z,99430.13
2023-01-19T01:25:42.610Z,99427.59
2023-01-19T01:30:45.425Z,99428.49
2023-01-19T01:35:52.095Z,99422.63
2023-01-19T01:40:54.891Z,99412.31
2023-01-19T01:45:57.876Z,99415.36
2023-01-19T01:51:22.853Z,99413.40
2023-01-19T01:56:32.451Z,99410.31
2023-01-19T02:01:55.086Z,99406.93
2023-01-19T02:07:17.179Z,99416.67
2023-01-19T02:12:38.889Z,99416.59
2023-01-19T02:17:42.595Z,99413.08
2023-01-19T02:22:50.150Z,99415.51
2023-01-19T02:27:52.970Z,99408.09
2023-01-19T02:32:55.762Z,99403.91
2023-01-19T02:37:58.764Z,99414.88
2023-01-19T02:43:02.053Z,99414.65
2023-01-19T02:48:06.029Z,99420.25
2023-01-19T02:53:25.438Z,99420.35
2023-01-19T02:59:03.191Z,99409.95
2023-01-19T03:04:37.816Z,99411.13
2023-01-19T03:09:52.702Z,99406.55
2023-01-19T03:14:59.896Z,99400.69
2023-01-19T03:20:03.002Z,99403.24
2023-01-19T03:25:07.063Z,99413.92
2023-01-19T03:30:14.630Z,99426.31
2023-01-19T03:35:18.382Z,99433.66
2023-01-19T03:40:21.162Z,99438.20
2023-01-19T03:45:24.013Z,99440.97
2023-01-19T03:50:29.682Z,99442.29
2023-01-19T03:55:33.263Z,99453.54
2023-01-19T04:00:36.615Z,99467.09
2023-01-19T04:05:39.716Z,99466.34
2023-01-19T04:10:42.562Z,99474.91
2023-01-19T04:15:45.374Z,99483.96
2023-01-19T04:20:48.273Z,99484.63
2023-01-19T04:25:51.058Z,99484.74
2023-01-19T04:30:54.799Z,99494.03
2023-01-19T04:35:57.699Z,99503.01
2023-01-19T04:41:00.469Z,99503.54
2023-01-19T04:46:03.386Z,99513.79
2023-01-19T04:51:06.185Z,99525.55
2023-01-19T04:56:09.150Z,99537.39
2023-01-19T05:01:11.936Z,99532.65
2023-01-19T05:06:14.784Z,99535.40
2023-01-19T05:11:17.632Z,99544.35
2023-01-19T05:16:20.497Z,99549.95
2023-01-19T05:21:23.339Z,99555.92
2023-01-19T05:26:26.189Z,99556.98
2023-01-19T05:31:29.134Z,99541.00
2023-01-19T05:36:32.679Z,99547.61
2023-01-19T05:41:35.834Z,99555.40
2023-01-19T05:46:39.865Z,99561.55
2023-01-19T05:51:45.551Z,99553.58
2023-01-19T05:56:48.315Z,99555.92
2023-01-19T06:01:54.328Z,99553.32
2023-01-19T06:06:57.135Z,99567.65
2023-01-19T06:11:59.906Z,99574.86
2023-01-19T06:17:02.764Z,99585.94
2023-01-19T06:22:06.318Z,99603.75
2023-01-19T06:27:09.354Z,99619.66
2023-01-19T06:32:12.264Z,99635.71
2023-01-19T06:37:16.770Z,99638.86
2023-01-19T06:42:19.595Z,99643.80
2023-01-19T06:47:23.365Z,99642.84
2023-01-19T06:52:26.179Z,99658.81
2023-01-19T06:57:28.961Z,99662.02
2023-01-19T07:02:31.915Z,99663.90
2023-01-19T07:07:36.676Z,99651.52
2023-01-19T07:12:39.503Z,99639.77
2023-01-19T07:17:43.722Z,99627.60
2023-01-19T07:22:46.692Z,99625.32
2023-01-19T07:27:49.528Z,99641.83
2023-01-19T07:32:56.870Z,99643.83
2023-01-19T07:37:59.774Z,99640.23
2023-01-19T07:43:02.987Z,99642.33
2023-01-19T07:48:06.686Z,99646.10
2023-01-19T07:53:09.947Z,99660.42
2023-01-19T07:58:12.716Z,99676.33
2023-01-19T08:03:15.718Z,99688.13
2023-01-19T08:08:19.343Z,99687.69
2023-01-19T08:13:22.197Z,99670.58
2023-01-19T08:18:25.007Z,99662.77
2023-01-19T08:23:28.204Z,99651.41
2023-01-19T08:28:31.580Z,99655.92
2023-01-19T08:33:34.480Z,99649.90
2023-01-19T08:38:39.811Z,99658.46
2023-01-19T08:43:43.015Z,99667.58
2023-01-19T08:48:45.863Z,99668.67
2023-01-19T08:53:48.671Z,99673.63
2023-01-19T08:59:07.651Z,99686.66
2023-01-19T09:04:12.213Z,99696.55
2023-01-19T09:09:15.153Z,99691.21
2023-01-19T09:14:18.018Z,99680.52
2023-01-19T09:19:21.304Z,99680.09
2023-01-19T09:24:24.156Z,99688.20
2023-01-19T09:29:27.349Z,99697.86
2023-01-19T09:34:31.451Z,99707.85
2023-01-19T09:39:34.281Z,99711.30
2023-01-19T09:44:37.184Z,99707.31
2023-01-19T09:49:44.039Z,99716.99
2023-01-19T09:54:53.062Z,99707.34
2023-01-19T09:59:59.815Z,99700.59
2023-01-19T10:05:32.689Z,99693.78
2023-01-19T10:10:37.524Z,99689.04
2023-01-19T10:16:01.992Z,99685.18
2023-01-19T10:21:33.657Z,99682.11
2023-01-19T10:26:55.847Z,99675.22
2023-01-19T10:32:34.136Z,99667.67
2023-01-19T10:37:37.966Z,99650.11
2023-01-19T10:42:42.029Z,99657.29
2023-01-19T10:47:46.294Z,99651.63
2023-01-19T10:52:51.691Z,99647.91
2023-01-19T10:57:54.550Z,99638.61
2023-01-19T11:02:57.443Z,99644.52
2023-01-19T11:08:00.362Z,99641.63
2023-01-19T11:13:12.758Z,99650.66
2023-01-19T11:18:29.885Z,99650.89
2023-01-19T11:23:43.119Z,99654.48
2023-01-19T11:28:47.597Z,99641.16
2023-01-19T11:33:52.334Z,99634.26
2023-01-19T11:39:00.590Z,99626.17
2023-01-19T11:44:26.842Z,99625.23
2023-01-19T11:49:46.727Z,99624.67
2023-01-19T11:54:56.551Z,99616.75
2023-01-19T12:00:03.657Z,99614.02
2023-01-19T12:05:06.941Z,99616.74
2023-01-19T12:10:26.622Z,99620.52
2023-01-19T12:15:42.989Z,99618.60
2023-01-19T12:20:52.475Z,99628.11
2023-01-19T12:26:27.909Z,99625.95
2023-01-19T12:31:31.017Z,99620.44
2023-01-19T12:36:36.664Z,99614.95
2023-01-19T12:41:40.319Z,99611.56
2023-01-19T12:47:08.223Z,99615.86
2023-01-19T12:52:34.525Z,99615.14
2023-01-19T12:57:58.263Z,99613.54
2023-01-19T13:03:18.495Z,99613.98
2023-01-19T13:08:31.203Z,99604.77
2023-01-19T13:13:41.232Z,99601.06
2023-01-19T13:18:58.546Z,99601.13
2023-01-19T13:24:22.484Z,99600.65
2023-01-19T13:29:36.162Z,99599.11
2023-01-19T13:34:40.391Z,99603.89
2023-01-19T13:39:49.169Z,99600.34
2023-01-19T13:44:53.676Z,99603.89
2023-01-19T13:49:57.732Z,99612.23
2023-01-19T13:55:03.458Z,99620.39
2023-01-19T14:00:11.919Z,99631.20
2023-01-19T14:05:30.360Z,99629.38
2023-01-19T14:10:34.991Z,99632.95
2023-01-19T14:15:38.650Z,99629.79
2023-01-19T14:20:42.335Z,99624.88
2023-01-19T14:25:45.179Z,99628.83
2023-01-19T14:30:59.507Z,99629.48
2023-01-19T14:36:33.370Z,99625.98
2023-01-19T14:41:40.793Z,99631.88
2023-01-19T14:46:47.618Z,99637.08
2023-01-19T14:51:50.463Z,99630.17
2023-01-19T14:56:53.891Z,99634.11
2023-01-19T15:01:56.826Z,99637.19
2023-01-19T15:06:59.688Z,99644.59
2023-01-19T15:12:02.454Z,99653.84
2023-01-19T15:17:05.255Z,99653.52
2023-01-19T15:22:13.039Z,99658.95
2023-01-19T15:27:16.223Z,99657.17
2023-01-19T15:32:19.006Z,99651.35
2023-01-19T15:37:21.911Z,99656.58
2023-01-19T15:42:24.779Z,99659.44
2023-01-19T15:47:27.624Z,99668.33
2023-01-19T15:52:30.394Z,99666.55
2023-01-19T15:57:35.152Z,99670.20
2023-01-19T16:02:38.042Z,99667.67
2023-01-19T16:07:40.993Z,99663.39
2023-01-19T16:12:45.217Z,99660.27
2023-01-19T16:17:49.445Z,99665.01
2023-01-19T16:22:52.886Z,99662.08
2023-01-19T16:27:57.027Z,99660.84
2023-01-19T16:32:59.940Z,99668.36
2023-01-19T16:38:02.854Z,99673.29
2023-01-19T16:43:06.064Z,99679.23
2023-01-19T16:48:08.987Z,99681.72
2023-01-19T16:53:11.811Z,99681.87
2023-01-19T16:58:14.808Z,99686.52
2023-01-19T17:03:20.902Z,99679.61
2023-01-19T17:08:24.091Z,99678.89
2023-01-19T17:13:27.285Z,99673.59
2023-01-19T17:18:32.842Z,99676.52
2023-01-19T17:23:37.473Z,99668.79
2023-01-19T17:28:40.493Z,99669.70
2023-01-19T17:33:45.100Z,99662.86
2023-01-19T17:38:58.609Z,99666.27
2023-01-19T17:44:02.500Z,99662.61
2023-01-19T17:49:06.711Z,99657.66
2023-01-19T17:54:11.028Z,99658.68
2023-01-19T17:59:13.902Z,99661.13
2023-01-19T18:04:16.706Z,99661.28
2023-01-19T18:09:19.559Z,99658.80
2023-01-19T18:14:22.397Z,99660.54
2023-01-19T18:19:25.256Z,99660.40
2023-01-19T18:25:03.548Z,99664.48
2023-01-19T18:30:40.470Z,99666.59
2023-01-19T18:35:51.755Z,99666.20
2023-01-19T18:41:03.261Z,99666.09
2023-01-19T18:55:59.799Z,99666.80
2023-01-19T19:01:33.633Z,99664.36
2023-01-19T19:06:37.057Z,99668.64
2023-01-19T19:11:40.067Z,99670.38
2023-01-19T19:16:48.001Z,99672.70
2023-01-19T19:21:54.721Z,99676.16
2023-01-19T19:26:59.343Z,99676.62
2023-01-19T19:33:21.734Z,99677.30
2023-01-19T19:38:29.547Z,99680.05
2023-01-19T19:43:34.428Z,99683.52
2023-01-19T19:48:39.427Z,99689.77
2023-01-19T19:53:43.394Z,99699.42
2023-01-19T20:14:20.746Z,99714.85
2023-01-19T20:19:24.289Z,99715.66
2023-01-19T20:24:27.430Z,99714.98
2023-01-19T20:29:30.746Z,99722.77
2023-01-19T20:40:51.719Z,99735.45
2023-01-19T21:00:21.443Z,99739.55
2023-01-19T21:06:27.957Z,99741.45
2023-01-19T21:11:30.919Z,99742.86
2023-01-19T21:16:34.290Z,99746.07
2023-01-19T21:21:37.182Z,99753.98
2023-01-19T21:26:41.828Z,99760.85
2023-01-19T21:31:44.731Z,99774.33
2023-01-19T21:36:47.615Z,99783.59
2023-01-19T21:41:50.397Z,99789.73
2023-01-19T21:46:54.713Z,99801.44
2023-01-19T21:51:57.642Z,99810.11
2023-01-19T21:57:02.661Z,99813.96
2023-01-19T22:02:06.107Z,99819.27
2023-01-19T22:07:09.035Z,99821.71
2023-01-19T22:12:11.852Z,99821.41
2023-01-19T22:17:14.631Z,99824.24
2023-01-19T22:22:17.414Z,99825.27
2023-01-19T22:27:20.231Z,99829.55
2023-01-19T22:32:23.059Z,99831.72
2023-01-19T22:37:25.877Z,99834.98
2023-01-19T22:42:28.682Z,99839.91
2023-01-19T22:47:31.575Z,99839.07
2023-01-19T22:52:34.333Z,99842.70
2023-01-19T22:57:37.432Z,99848.55
2023-01-19T23:02:40.376Z,99852.95
2023-01-19T23:07:43.223Z,99861.19
2023-01-19T23:12:46.762Z,99876.84
2023-01-19T23:17:52.959Z,99887.29
2023-01-19T23:22:55.751Z,99886.92
2023-01-19T23:27:58.541Z,99883.97
2023-01-19T23:33:02.824Z,99884.19
2023-01-19T23:38:05.875Z,99884.46
2023-01-19T23:43:08.685Z,99893.19
2023-01-19T23:48:11.508Z,99903.20
2023-01-19T23:53:14.277Z,99915.98
2023-01-19T23:58:17.138Z,99920.86
